Crossville Memorial Whitson Field Crossville US
ICAO: KCSV
IATA: CSV
Category: Medium
Scheduled Services: No

Elevation: 1881 ft
TransAlt. 18000 ft.

Airport Communications:
ASOS:120.625
ATLANTA CNTR:133.6
NASHVILLE RDO:122.2
CTAF/UNICOM:122.7

KCSV Zoom In..

If you have problems with the map follow the link
https://www.worldairports.se/pages/airport.php?
ICAO=KCSV

Runways:

(A) RW 08 length 5418 ft width 100 ft
---- / hdg 75

(B) RW 26 length 5418 ft width 100 ft
ILS 109.10 / hdg 255

Location; KCSV
Day. 18 / Time. 06.53 Zulu
* Altimeter: 30.40
* Temperature: 07° c. 44.6°f.
* Wind from: 350° Speed 04 kn.
Dewpoint: 03° c.
Visibility: 10 Statute Miles.
Clouds: Clear (automated report).

KCSV 180653Z AUTO 35004KT 10SM CLR 07/03 A3040 RMK AO2 SLP290 T00720033


Wind From 350°
Speed 04 kn.

 
 
jpsmedia.com for Web Design worldairports.se 2018   terms of use